^^
NorthLandsweather Station Historical Data
 
Daily Summary for December 06, 2019 Units:  English    Metric   Both
Daily Weekly Monthly Yearly Custom
  Current: High: Low: Average:
Temperature: 14.3 °F 30.4 °F 14.3 °F 23.8 °F
Dew Point: 9.5 °F 26.1 °F 9.5 °F 16.9 °F
Humidity: 81% 84% 61% 75%
Wind Speed: 0mph 15mph 0mph 3.1mph
Wind Gust: 0mph 6.2mph - -
WindCalm - - SW
Pressure: 30.38 in 9999.00 in 30.15 in -
Precipitation: 0 in      
Historical Graphs
 
 
Tabular Data for December 06, 2019
Time Temperature Dew Point Pressure Wind Wind Speed Wind Gust Humidity Rainfall Rate (Hourly) solar
00:00 30.3 °F 26 °F 30.16 in West 3 mph 1 mph 84% 0 in 0.00 W/m2
00:05 30.3 °F 26 °F 30.15 in NE 2.3 mph 1 mph 84% 0 in 0.00 W/m2
00:10 30.4 °F 26.1 °F 30.15 in NE 2.3 mph 0.6 mph 84% 0 in 0.00 W/m2
00:15 30.4 °F 26.1 °F 30.16 in North 3.5 mph 2.1 mph 84% 0 in 0.00 W/m2
00:20 30.4 °F 25.9 °F 30.16 in WSW 9.2 mph 4 mph 83% 0 in 0.00 W/m2
00:25 30.4 °F 25.9 °F 30.17 in NW 5 mph 3.4 mph 83% 0 in 0.00 W/m2
00:30 30.3 °F 25.5 °F 30.17 in West 4.6 mph 2.5 mph 82% 0 in 0.00 W/m2
00:35 30.2 °F 25.4 °F 30.17 in WSW 4 mph 1.9 mph 82% 0 in 0.00 W/m2
00:40 30.2 °F 25.1 °F 30.18 in NNW 4.6 mph 2.1 mph 81% 0 in 0.00 W/m2
00:45 30.1 °F 25 °F 30.18 in West 11.5 mph 5.1 mph 81% 0 in 0.00 W/m2
00:50 30.2 °F 25.1 °F 30.18 in NNE 3.5 mph 2.2 mph 81% 0 in 0.00 W/m2
00:55 30.2 °F 24.8 °F 30.18 in NE 1.2 mph 0.4 mph 80% 0 in 0.00 W/m2
01:00 30.2 °F 24.8 °F 30.18 in WNW 4 mph 1.1 mph 80% 0 in 0.00 W/m2
01:05 30.2 °F 24.8 °F 30.18 in WSW 4.6 mph 2.4 mph 80% 0 in 0.00 W/m2
01:10 30.2 °F 24.8 °F 30.18 in WSW 9.2 mph 3.9 mph 80% 0 in 0.00 W/m2
01:15 30.1 °F 24.7 °F 30.18 in NNW 9.2 mph 3.3 mph 80% 0 in 0.00 W/m2
01:20 30.1 °F 24.7 °F 30.19 in ESE 2.3 mph 1.1 mph 80% 0 in 0.00 W/m2
01:25 30.1 °F 24.4 °F 30.19 in North 4.6 mph 1.4 mph 79% 0 in 0.00 W/m2
01:30 30.1 °F 24.4 °F 30.19 in SSW 1.2 mph 0.2 mph 79% 0 in 0.00 W/m2
01:35 30.1 °F 24.4 °F 30.19 in WNW 3.5 mph 1 mph 79% 0 in 0.00 W/m2
01:40 30 °F 24 °F 30.20 in WSW 4.6 mph 2.9 mph 78% 0 in 0.00 W/m2
01:45 29.9 °F 23.9 °F 30.20 in NE 9.2 mph 4.2 mph 78% 0 in 0.00 W/m2
01:50 29.9 °F 23.6 °F 30.20 in West 4.6 mph 2.9 mph 77% 0 in 0.00 W/m2
01:55 29.8 °F 23.5 °F 30.21 in NNE 5.8 mph 3.3 mph 77% 0 in 0.00 W/m2
02:00 29.7 °F 23.4 °F 30.21 in WNW 3.5 mph 0.8 mph 77% 0 in 0.00 W/m2
02:05 29.6 °F 23.6 °F 30.21 in West 4 mph 1 mph 78% 0 in 0.00 W/m2
02:10 29.6 °F 23.3 °F 30.21 in SSW 10.4 mph 4.6 mph 77% 0 in 0.00 W/m2
02:15 29.5 °F 23.2 °F 30.22 in WNW 8.1 mph 2.6 mph 77% 0 in 0.00 W/m2
02:20 29.5 °F 23.2 °F 30.22 in NNW 6.9 mph 4 mph 77% 0 in 0.00 W/m2
02:25 29.4 °F 23.1 °F 30.22 in WNW 5.8 mph 3 mph 77% 0 in 0.00 W/m2
02:30 29.3 °F 23 °F 30.23 in NNW 4.6 mph 1.8 mph 77% 0 in 0.00 W/m2
02:35 29.2 °F 22.9 °F 30.22 in SW 4.6 mph 2.6 mph 77% 0 in 0.00 W/m2
02:40 29.2 °F 22.6 °F 30.23 in WNW 5.8 mph 3.5 mph 76% 0 in 0.00 W/m2
02:45 29.1 °F 22.5 °F 30.23 in WSW 5.8 mph 3 mph 76% 0 in 0.00 W/m2
02:50 29 °F 22.4 °F 30.23 in NNE 6.9 mph 3.2 mph 76% 0 in 0.00 W/m2
02:55 28.8 °F 22.5 °F 30.24 in WNW 2.3 mph 1.2 mph 77% 0 in 0.00 W/m2
03:00 28.8 °F 22.5 °F 30.24 in NE 3.5 mph 0.5 mph 77% 0 in 0.00 W/m2
03:05 28.9 °F 22.6 °F 30.24 in West 6 mph 0.7 mph 77% 0 in 0.00 W/m2
03:10 28.8 °F 22.5 °F 30.24 in SW 3 mph 0.8 mph 77% 0 in 0.00 W/m2
03:15 28.7 °F 22.4 °F 30.24 in WSW 11.5 mph 5.4 mph 77% 0 in 0.00 W/m2
03:20 28.5 °F 22.2 °F 30.24 in West 6.9 mph 2.3 mph 77% 0 in 0.00 W/m2
03:25 28.3 °F 22 °F 30.25 in WNW 8.1 mph 3.8 mph 77% 0 in 0.00 W/m2
03:30 28.1 °F 21.8 °F 30.25 in WNW 5.8 mph 2.1 mph 77% 0 in 0.00 W/m2
03:35 27.8 °F 21.5 °F 30.25 in WNW 6.9 mph 3.2 mph 77% 0 in 0.00 W/m2
03:40 27.6 °F 21.6 °F 30.25 in NE 9.2 mph 3.4 mph 78% 0 in 0.00 W/m2
03:45 27.4 °F 21.1 °F 30.25 in SW 8.1 mph 3.3 mph 77% 0 in 0.00 W/m2
03:50 27.2 °F 20.9 °F 30.25 in WSW 4.6 mph 3.1 mph 77% 0 in 0.00 W/m2
03:55 26.9 °F 21 °F 30.26 in NE 9.2 mph 3.8 mph 78% 0 in 0.00 W/m2
04:00 26.7 °F 21.1 °F 30.26 in West 5.8 mph 3.1 mph 79% 0 in 0.00 W/m2
04:05 26.6 °F 21 °F 30.26 in WSW 3.5 mph 1.3 mph 79% 0 in 0.00 W/m2
04:10 26.5 °F 20.6 °F 30.26 in WSW 6.9 mph 3.5 mph 78% 0 in 0.00 W/m2
04:15 26.2 °F 20.3 °F 30.26 in South 4 mph 2.2 mph 78% 0 in 0.00 W/m2
04:20 26 °F 20.1 °F 30.26 in North 3.5 mph 1.6 mph 78% 0 in 0.00 W/m2
04:25 25.9 °F 20 °F 30.27 in NNE 3.5 mph 2.4 mph 78% 0 in 0.00 W/m2
04:30 25.7 °F 19.8 °F 30.27 in West 4 mph 2.4 mph 78% 0 in 0.00 W/m2
04:35 25.5 °F 19.9 °F 30.27 in SW 3.5 mph 1.8 mph 79% 0 in 0.00 W/m2
04:40 25.4 °F 19.8 °F 30.27 in NW 2.3 mph 0.9 mph 79% 0 in 0.00 W/m2
04:45 25.4 °F 19.8 °F 30.27 in South 3.5 mph 1.1 mph 79% 0 in 0.00 W/m2
04:50 25.3 °F 19.7 °F 30.27 in WNW 3.5 mph 2.4 mph 79% 0 in 0.00 W/m2
04:55 25.2 °F 19.6 °F 30.27 in NW 8 mph 1.2 mph 79% 0 in 0.00 W/m2
05:00 25.1 °F 19.5 °F 30.27 in North 10.4 mph 5.3 mph 79% 0 in 0.00 W/m2
05:05 24.8 °F 19.2 °F 30.28 in SW 5.8 mph 3.7 mph 79% 0 in 0.00 W/m2
05:10 24.5 °F 18.9 °F 30.28 in West 3.5 mph 2 mph 79% 0 in 0.00 W/m2
05:15 24.4 °F 18.5 °F 30.28 in SW 3.5 mph 1.1 mph 78% 0 in 0.00 W/m2
05:20 24.3 °F 18.4 °F 30.28 in SW 4.6 mph 2 mph 78% 0 in 0.00 W/m2
05:25 24.2 °F 18.3 °F 30.28 in North 15 mph 6.2 mph 78% 0 in 0.00 W/m2
05:30 23.9 °F 17.7 °F 30.29 in WNW 5 mph 1.2 mph 77% 0 in 0.00 W/m2
05:35 23.8 °F 17.6 °F 30.29 in North 3.5 mph 1.3 mph 77% 0 in 0.00 W/m2
05:40 23.8 °F 17.9 °F 30.29 in NNW 6.9 mph 3.5 mph 78% 0 in 0.00 W/m2
05:45 23.7 °F 17.8 °F 30.30 in WNW 1.2 mph 0.3 mph 78% 0 in 0.00 W/m2
05:50 23.7 °F 18.1 °F 30.30 in NW 8.1 mph 3.5 mph 79% 0 in 0.00 W/m2
05:55 23.5 °F 17.6 °F 30.30 in Calm     78% 0 in 0.00 W/m2
06:00 23.4 °F 17.8 °F 30.30 in East 2 mph 0.3 mph 79% 0 in 0.00 W/m2
06:05 23.2 °F 17.7 °F 30.31 in West 3.5 mph 1.5 mph 79% 0 in 0.00 W/m2
06:10 23 °F 17.5 °F 30.31 in SSW 5.8 mph 3.4 mph 79% 0 in 0.00 W/m2
06:15 22.8 °F 17.3 °F 30.31 in SW 3.5 mph 1 mph 79% 0 in 0.00 W/m2
06:20 22.8 °F 17.3 °F 30.31 in WNW 4.6 mph 3.4 mph 79% 0 in 0.00 W/m2
06:25 22.6 °F 17.1 °F 30.32 in WNW 6.9 mph 3.5 mph 79% 0 in 0.00 W/m2
06:30 22.5 °F 16.7 °F 30.32 in West 4 mph 2.6 mph 78% 0 in 0.00 W/m2
06:35 22.4 °F 16.6 °F 30.32 in West 1.2 mph 0.6 mph 78% 0 in 0.00 W/m2
06:40 22.3 °F 16.5 °F 30.32 in NW 3.5 mph 1.8 mph 78% 0 in 0.00 W/m2
06:45 22.1 °F 16.3 °F 30.32 in NNE 3.5 mph 1.5 mph 78% 0 in 0.00 W/m2
06:50 22 °F 15.9 °F 30.32 in SW 5.8 mph 2.7 mph 77% 0 in 0.00 W/m2
06:55 21.8 °F 16 °F 30.33 in NW 2.3 mph 1 mph 78% 0 in 0.00 W/m2
07:00 21.8 °F 16.3 °F 30.33 in West 2.3 mph 0.3 mph 79% 0 in 0.00 W/m2
07:05 21.6 °F 16.1 °F 30.33 in West 5.8 mph 3.3 mph 79% 0 in 0.00 W/m2
07:10 21.6 °F 16.1 °F 30.33 in West 2.3 mph 0.4 mph 79% 0 in 0.00 W/m2
07:15 21.6 °F 16.1 °F 30.33 in North 1.2 mph 0.5 mph 79% 0 in 0.00 W/m2
07:20 21.6 °F 16.1 °F 30.34 in WNW 6.9 mph 4.2 mph 79% 0 in 0.00 W/m2
07:25 21.5 °F 15.7 °F 30.34 in West 5.8 mph 3.2 mph 78% 0 in 0.00 W/m2
07:30 21.4 °F 15.9 °F 30.34 in NNW 3.5 mph 1.8 mph 79% 0 in 0.00 W/m2
07:35 21.2 °F 15.7 °F 30.34 in WSW 4 mph 1.5 mph 79% 0 in 0.00 W/m2
07:40 21 °F 15.2 °F 30.34 in West 4.6 mph 2.3 mph 78% 0 in 23.90 W/m2
07:45 20.9 °F 15.4 °F 30.34 in NW 1 mph   79% 0 in 75.40 W/m2
07:50 20.9 °F 15.4 °F 30.34 in West 3.5 mph 1.4 mph 79% 0 in 94.60 W/m2
07:55 20.9 °F 15.1 °F 30.34 in WNW 6 mph 0.5 mph 78% 0 in 98.70 W/m2
08:00 20.9 °F 15.4 °F 30.34 in West 3 mph 1.1 mph 79% 0 in 115.80 W/m2
08:05 21 °F 15.2 °F 30.35 in West 5 mph 3.8 mph 78% 0 in 119.90 W/m2
08:10 20.9 °F 15.1 °F 30.35 in SW 3.5 mph 1.3 mph 78% 0 in 123.90 W/m2
08:15 20.7 °F 14.9 °F 30.35 in WSW 3.5 mph 2.2 mph 78% 0 in 133.00 W/m2
08:20 20.6 °F 14.8 °F 30.35 in WNW 2.3 mph 0.8 mph 78% 0 in 141.10 W/m2
08:25 20.6 °F 15.1 °F 30.35 in Calm     79% 0 in 145.10 W/m2
08:30 20.7 °F 15.2 °F 30.36 in WSW 2.3 mph 1 mph 79% 0 in 141.10 W/m2
08:35 20.6 °F 14.8 °F 30.36 in NNE 2.3 mph 0.2 mph 78% 0 in 149.20 W/m2
08:40 20.7 °F 14.9 °F 30.36 in WSW 3 mph 0.9 mph 78% 0 in 157.30 W/m2
08:45 20.7 °F 14.9 °F 30.36 in WSW 3 mph 1 mph 78% 0 in 159.30 W/m2
08:50 20.8 °F 14.7 °F 30.36 in NNE 3.5 mph 2.3 mph 77% 0 in 159.30 W/m2
08:55 20.9 °F 14.8 °F 30.36 in SW 3.5 mph 2.5 mph 77% 0 in 169.40 W/m2
09:00 20.9 °F 14.8 °F 30.36 in SW 2 mph 0.1 mph 77% 0 in 168.40 W/m2
09:05 21 °F 14.6 °F 30.37 in North 4 mph 1.6 mph 76% 0 in 166.30 W/m2
09:10 21.1 °F 14.7 °F 30.37 in NW 6.9 mph 2.4 mph 76% 0 in 165.30 W/m2
09:15 21.1 °F 14.4 °F 30.37 in NNW 3.5 mph 1.2 mph 75% 0 in 161.30 W/m2
09:20 21 °F 14.6 °F 30.38 in WNW 4 mph 2.6 mph 76% 0 in 168.40 W/m2
09:25 21.2 °F 14.8 °F 30.38 in West 2.3 mph 0.6 mph 76% 0 in 173.40 W/m2
09:30 21.3 °F 14.6 °F 30.38 in NNW 3.5 mph 1.6 mph 75% 0 in 179.50 W/m2
09:35 21.4 °F 14.7 °F 30.38 in North 3 mph 1 mph 75% 0 in 164.30 W/m2
09:40 21.4 °F 14.4 °F 30.38 in NW 7 mph 2 mph 74% 0 in 165.30 W/m2
09:45 21.1 °F 14.4 °F 30.38 in NE 3.5 mph 1.5 mph 75% 0 in 161.30 W/m2
09:50 20.9 °F 14.2 °F 30.39 in West 2.3 mph 0.6 mph 75% 0 in 169.40 W/m2
09:55 20.8 °F 14.1 °F 30.39 in West 2.3 mph 0.2 mph 75% 0 in 177.40 W/m2
10:00 20.8 °F 14.1 °F 30.39 in WSW 9.2 mph 4.6 mph 75% 0 in 168.40 W/m2
10:05 20.8 °F 14.4 °F 30.39 in West 9 mph 4.6 mph 76% 0 in 167.30 W/m2
10:10 20.8 °F 14.1 °F 30.39 in WNW 1.2 mph 0.7 mph 75% 0 in 161.30 W/m2
10:15 20.8 °F 14.1 °F 30.39 in North 3.5 mph 2.7 mph 75% 0 in 160.30 W/m2
10:20 20.8 °F 14.1 °F 30.39 in WNW 2.3 mph 1 mph 75% 0 in 162.30 W/m2
10:25 20.9 °F 14.2 °F 30.39 in West 3.5 mph 0.7 mph 75% 0 in 168.40 W/m2
10:30 21 °F 14.3 °F 30.39 in NW 5.8 mph 4.2 mph 75% 0 in 161.30 W/m2
10:35 21.3 °F 14.6 °F 30.39 in WSW 2.3 mph 1.3 mph 75% 0 in 163.30 W/m2
10:40 21.4 °F 14.4 °F 30.39 in West 3.5 mph 1.4 mph 74% 0 in 164.30 W/m2
10:45 21.5 °F 14.5 °F 30.39 in SW 3.5 mph 2.1 mph 74% 0 in 168.40 W/m2
10:50 21.5 °F 14.5 °F 30.39 in WNW 3.5 mph 1.3 mph 74% 0 in 163.30 W/m2
10:55 21.7 °F 14.7 °F 30.39 in NNW 4.6 mph 3.3 mph 74% 0 in 173.40 W/m2
11:00 21.9 °F 14.9 °F 30.39 in West 2.3 mph 1 mph 74% 0 in 202.70 W/m2
11:05 22 °F 15 °F 30.39 in WNW 4 mph 1.2 mph 74% 0 in 188.60 W/m2
11:10 22.2 °F 14.9 °F 30.39 in WSW 3.5 mph 1.9 mph 73% 0 in 203.70 W/m2
11:15 22.5 °F 15.5 °F 30.39 in WSW 3 mph 0.2 mph 74% 0 in 184.50 W/m2
11:20 22.9 °F 15.2 °F 30.39 in SW 1.2 mph 0.3 mph 72% 0 in 197.70 W/m2
11:25 23.1 °F 15.1 °F 30.39 in NNE 2.3 mph 0.8 mph 71% 0 in 172.40 W/m2
11:30 23.1 °F 15.1 °F 30.39 in NE 3.5 mph 1.4 mph 71% 0 in 172.40 W/m2
11:35 22.9 °F 14.9 °F 30.39 in WSW 3 mph 1 mph 71% 0 in 173.40 W/m2
11:40 22.9 °F 14.9 °F 30.39 in WNW 2.3 mph 1.3 mph 71% 0 in 177.40 W/m2
11:45 22.9 °F 14.9 °F 30.38 in ENE 2.3 mph 0.2 mph 71% 0 in 185.50 W/m2
11:50 23 °F 15 °F 30.38 in West 3.5 mph 0.6 mph 71% 0 in 179.50 W/m2
11:55 23 °F 15 °F 30.38 in North 1.2 mph 0.2 mph 71% 0 in 186.50 W/m2
12:00 23.2 °F 15.2 °F 30.38 in North 2 mph 0.3 mph 71% 0 in 204.70 W/m2
12:05 23.4 °F 15.4 °F 30.38 in Calm     71% 0 in 200.70 W/m2
12:10 23.7 °F 15.7 °F 30.38 in WNW 2.3 mph 1.6 mph 71% 0 in 186.50 W/m2
12:15 23.9 °F 15.5 °F 30.38 in WSW 3 mph   70% 0 in 173.40 W/m2
12:20 24.3 °F 15.6 °F 30.38 in West 2.3 mph 0.3 mph 69% 0 in 177.40 W/m2
12:25 24.5 °F 15.4 °F 30.37 in SE 2.3 mph 0.8 mph 68% 0 in 187.60 W/m2
12:30 24.6 °F 15.2 °F 30.37 in SW 4.6 mph 3.2 mph 67% 0 in 182.50 W/m2
12:35 24.6 °F 15.5 °F 30.37 in NE 2.3 mph 0.4 mph 68% 0 in 176.40 W/m2
12:40 24.7 °F 15.3 °F 30.37 in SW 3.5 mph 0.4 mph 67% 0 in 182.50 W/m2
12:45 24.9 °F 15.8 °F 30.37 in SW 1.2 mph 0.2 mph 68% 0 in 178.50 W/m2
12:50 24.9 °F 15.5 °F 30.37 in ENE 2.3 mph 0.9 mph 67% 0 in 187.60 W/m2
12:55 24.9 °F 15.5 °F 30.37 in NNW 2.3 mph 0.5 mph 67% 0 in 182.50 W/m2
13:00 24.9 °F 15.1 °F 30.37 in WNW 3.5 mph 1.2 mph 66% 0 in 173.40 W/m2
13:05 25 °F 15.6 °F 30.37 in WNW 2.3 mph 1 mph 67% 0 in 176.40 W/m2
13:10 25.1 °F 15 °F 30.37 in WNW 3.5 mph 2.6 mph 65% 0 in 188.60 W/m2
13:15 25.3 °F 15.5 °F 30.37 in WNW 1.2 mph 0.3 mph 66% 0 in 176.40 W/m2
13:20 25.5 °F 15.4 °F 30.37 in WNW 1.2 mph 0.1 mph 65% 0 in 177.40 W/m2
13:25 25.7 °F 15.2 °F 30.37 in WSW 2.3 mph 0.4 mph 64% 0 in 177.40 W/m2
13:30 25.8 °F 15.6 °F 30.37 in Calm     65% 0 in 174.40 W/m2
13:35 26 °F 15.5 °F 30.37 in WNW 3.5 mph 1.7 mph 64% 0 in 179.50 W/m2
13:40 26.1 °F 15.2 °F 30.37 in SW 2.3 mph 0.4 mph 63% 0 in 193.60 W/m2
13:45 26.3 °F 15.4 °F 30.37 in WNW 3.5 mph 1.1 mph 63% 0 in 179.50 W/m2
13:50 26.2 °F 15.7 °F 30.37 in Calm     64% 0 in 200.70 W/m2
13:55 26.3 °F 15.8 °F 30.37 in West 2.3 mph 0.6 mph 64% 0 in 196.60 W/m2
14:00 26.4 °F 16.2 °F 30.37 in Calm     65% 0 in 183.50 W/m2
14:05 26.6 °F 16.1 °F 30.37 in WSW 1.2 mph   64% 0 in 172.40 W/m2
14:10 26.8 °F 15.9 °F 30.37 in West 2.3 mph 0.7 mph 63% 0 in 173.40 W/m2
14:15 26.9 °F 15.6 °F 30.37 in WNW 3.5 mph 2.3 mph 62% 0 in 168.40 W/m2
14:20 26.9 °F 15.6 °F 30.37 in West 2 mph   62% 0 in 171.40 W/m2
14:25 26.9 °F 15.2 °F 30.37 in WSW 1.2 mph 0.3 mph 61% 0 in 172.40 W/m2
14:30 26.5 °F 15.2 °F 30.37 in West 3.5 mph 1.3 mph 62% 0 in 175.40 W/m2
14:35 26.4 °F 15.9 °F 30.38 in Calm     64% 0 in 181.50 W/m2
14:40 26.3 °F 16.5 °F 30.37 in Calm     66% 0 in 177.40 W/m2
14:45 26.2 °F 16.4 °F 30.38 in Calm     66% 0 in 178.50 W/m2
14:50 26.3 °F 16.5 °F 30.38 in West 2.3 mph 0.5 mph 66% 0 in 181.50 W/m2
14:55 26.3 °F 17.2 °F 30.37 in Calm     68% 0 in 169.40 W/m2
15:00 26.3 °F 16.5 °F 30.37 in West 2.3 mph 0.4 mph 66% 0 in 165.30 W/m2
15:05 26.5 °F 16 °F 30.38 in West 3.5 mph 1.7 mph 64% 0 in 163.30 W/m2
15:10 26.6 °F 16.1 °F 30.38 in Calm     64% 0 in 164.30 W/m2
15:15 26.5 °F 16 °F 30.38 in Calm     64% 0 in 160.30 W/m2
15:20 26.5 °F 15.6 °F 30.38 in West 3.5 mph 0.6 mph 63% 0 in 151.20 W/m2
15:25 26.5 °F 16 °F 30.38 in Calm     64% 0 in 147.20 W/m2
15:30 26.3 °F 16.1 °F 30.38 in Calm     65% 0 in 141.10 W/m2
15:35 26 °F 15.8 °F 30.38 in West 2.3 mph 0.1 mph 65% 0 in 139.10 W/m2
15:40 26 °F 16.2 °F 30.38 in Calm     66% 0 in 136.00 W/m2
15:45 25.9 °F 16.1 °F 30.38 in Calm     66% 0 in 132.00 W/m2
15:50 25.9 °F 16.1 °F 30.38 in Calm     66% 0 in 126.90 W/m2
15:55 25.6 °F 15.8 °F 30.38 in Calm     66% 0 in 116.80 W/m2
16:00 25.3 °F 15.9 °F 30.38 in Calm     67% 0 in 116.80 W/m2
16:05 25.2 °F 15.8 °F 30.38 in Calm     67% 0 in 113.80 W/m2
16:10 24.9 °F 15.8 °F 30.38 in Calm     68% 0 in 96.70 W/m2
16:15 24.6 °F 15.9 °F 30.38 in Calm     69% 0 in 91.60 W/m2
16:20 24.2 °F 15.2 °F 30.38 in Calm     68% 0 in 71.40 W/m2
16:25 23.7 °F 15 °F 30.38 in Calm     69% 0 in 18.90 W/m2
16:30 23.3 °F 15 °F 30.38 in Calm     70% 0 in 0.00 W/m2
16:35 22.5 °F 14.2 °F 30.38 in Calm     70% 0 in 0.00 W/m2
16:40 22.1 °F 13.8 °F 30.38 in Calm     70% 0 in 0.00 W/m2
16:45 21.3 °F 13.7 °F 30.38 in Calm     72% 0 in 0.00 W/m2
16:50 20.5 °F 13.2 °F 30.37 in Calm     73% 0 in 0.00 W/m2
16:55 18.122 °F 13 °F 9999.00 in Calm   -999 mph 80% 0.00 in W/m2
17:00 19.9 °F 12.6 °F 30.38 in Calm     73% 0 in 0.00 W/m2
17:05 19.7 °F 12.8 °F 30.38 in Calm     74% 0 in 0.00 W/m2
17:10 19 °F 12.1 °F 30.38 in Calm     74% 0 in 0.00 W/m2
17:15 18.3 °F 11.4 °F 30.38 in Calm     74% 0 in 0.00 W/m2
17:20 17.7 °F 11.1 °F 30.38 in Calm     75% 0 in 0.00 W/m2
17:25 17.3 °F 11 °F 30.38 in Calm     76% 0 in 0.00 W/m2
17:30 16.9 °F 10.6 °F 30.38 in Calm     76% 0 in 0.00 W/m2
17:35 16.6 °F 10.6 °F 30.38 in Calm     77% 0 in 0.00 W/m2
17:40 16.1 °F 10.2 °F 30.38 in Calm     77% 0 in 0.00 W/m2
17:45 15.6 °F 10 °F 30.38 in Calm     78% 0 in 0.00 W/m2
17:50 15.4 °F 10.1 °F 30.38 in Calm     79% 0 in 0.00 W/m2
17:55 15.4 °F 10.1 °F 30.38 in Calm     79% 0 in 0.00 W/m2
18:00 15.1 °F 9.8 °F 30.38 in Calm     79% 0 in 0.00 W/m2
18:05 15.1 °F 9.8 °F 30.39 in Calm     79% 0 in 0.00 W/m2
18:10 15.2 °F 9.9 °F 30.39 in Calm     79% 0 in 0.00 W/m2
18:15 15.1 °F 9.8 °F 30.39 in Calm     79% 0 in 0.00 W/m2
18:20 15 °F 9.7 °F 30.39 in Calm     79% 0 in 0.00 W/m2
18:25 15.3 °F 10.2 °F 30.38 in Calm     80% 0 in 0.00 W/m2
18:30 15.3 °F 10 °F 30.38 in Calm     79% 0 in 0.00 W/m2
18:35 15.3 °F 10 °F 30.38 in Calm     79% 0 in 0.00 W/m2
18:40 15.3 °F 10.2 °F 30.38 in Calm     80% 0 in 0.00 W/m2
18:45 15.2 °F 10.4 °F 30.38 in Calm     81% 0 in 0.00 W/m2
18:50 15 °F 9.9 °F 30.38 in Calm     80% 0 in 0.00 W/m2
18:55 14.7 °F 9.6 °F 30.38 in Calm     80% 0 in 0.00 W/m2
19:00 14.3 °F 9.5 °F 30.38 in Calm     81% 0 in 0.00 W/m2
19:05 14.3 °F 9.5 °F 30.38 in Calm     81% 0 in 0.00 W/m2
19:10 14.3 °F 9.5 °F 30.38 in Calm     81% 0 in 0.00 W/m2
Winter, Wisconsin USA
Compliments of Weather Underground - 4 mb